createdAt,value
2022-10-07T00:01:28.662Z,62.14
2022-10-07T00:04:31.221Z,60.54
2022-10-07T00:07:35.154Z,66.34
2022-10-07T00:10:40.351Z,62.81
2022-10-07T00:13:44.837Z,61.15
2022-10-07T00:16:47.467Z,62.88
2022-10-07T00:19:50.019Z,61.38
2022-10-07T00:22:54.492Z,61.08
2022-10-07T00:26:01.205Z,60.36
2022-10-07T00:29:05.217Z,60.16
2022-10-07T00:32:07.755Z,61.02
2022-10-07T00:35:10.477Z,60.49
2022-10-07T00:38:14.403Z,61.21
2022-10-07T00:41:19.565Z,59.92
2022-10-07T00:44:38.499Z,64.04
2022-10-07T00:47:42.560Z,65.09
2022-10-07T00:50:46.085Z,66.59
2022-10-07T00:53:53.525Z,65.52
2022-10-07T00:56:56.181Z,68.00
2022-10-07T00:59:59.932Z,67.68
2022-10-07T01:03:02.892Z,76.96
2022-10-07T01:06:06.946Z,75.12
2022-10-07T01:09:12.047Z,66.92
2022-10-07T01:12:22.301Z,74.86
2022-10-07T01:15:34.489Z,74.68
2022-10-07T01:18:43.155Z,69.12
2022-10-07T01:22:00.538Z,72.86
2022-10-07T01:25:18.273Z,75.26
2022-10-07T01:28:27.642Z,67.64
2022-10-07T01:31:37.864Z,70.21
2022-10-07T01:34:43.170Z,63.66
2022-10-07T01:37:51.720Z,62.97
2022-10-07T01:40:58.416Z,71.57
2022-10-07T01:44:02.781Z,71.77
2022-10-07T01:47:05.513Z,68.46
2022-10-07T01:50:12.998Z,62.55
2022-10-07T01:53:27.478Z,65.25
2022-10-07T01:56:46.687Z,62.80
2022-10-07T02:00:06.465Z,64.69
2022-10-07T02:03:29.751Z,69.02
2022-10-07T02:06:42.421Z,65.06
2022-10-07T02:09:50.609Z,63.03
2022-10-07T02:13:00.807Z,63.49
2022-10-07T02:16:11.024Z,65.31
2022-10-07T02:19:16.906Z,62.07
2022-10-07T02:22:20.522Z,61.80
2022-10-07T02:25:24.887Z,70.20
2022-10-07T02:28:29.181Z,73.25
2022-10-07T02:31:34.816Z,67.66
2022-10-07T02:34:38.889Z,63.41
2022-10-07T02:37:43.928Z,61.83
2022-10-07T02:40:53.642Z,64.51
2022-10-07T02:44:01.379Z,63.93
2022-10-07T02:47:11.459Z,62.39
2022-10-07T02:50:17.598Z,60.70
2022-10-07T02:53:22.160Z,60.93
2022-10-07T02:56:28.227Z,63.85
2022-10-07T02:59:32.893Z,64.31
2022-10-07T03:02:40.772Z,64.59
2022-10-07T03:05:43.627Z,64.60
2022-10-07T03:08:47.907Z,64.88
2022-10-07T03:11:50.398Z,65.12
2022-10-07T03:14:53.685Z,66.17
2022-10-07T03:17:57.561Z,66.80
2022-10-07T03:21:01.006Z,66.11
2022-10-07T03:24:05.615Z,65.87
2022-10-07T03:27:09.052Z,65.88
2022-10-07T03:30:12.668Z,66.35
2022-10-07T03:33:16.863Z,66.87
2022-10-07T03:36:19.321Z,69.47
2022-10-07T03:39:21.908Z,68.65
2022-10-07T03:42:24.433Z,66.92
2022-10-07T03:45:26.951Z,69.03
2022-10-07T03:48:31.492Z,70.49
2022-10-07T03:51:33.946Z,67.78
2022-10-07T03:54:36.382Z,68.19
2022-10-07T03:57:52.551Z,70.97
2022-10-07T04:01:05.362Z,64.80
2022-10-07T04:04:09.126Z,74.89
2022-10-07T04:07:12.066Z,68.64
2022-10-07T04:10:16.809Z,66.78
2022-10-07T04:13:19.249Z,66.28
2022-10-07T04:16:22.046Z,66.76
2022-10-07T04:19:25.889Z,66.65
2022-10-07T04:22:28.416Z,64.38
2022-10-07T04:25:38.508Z,63.48
2022-10-07T04:28:41.352Z,68.75
2022-10-07T04:31:43.858Z,66.52
2022-10-07T04:34:47.668Z,68.32
2022-10-07T04:37:50.588Z,66.78
2022-10-07T04:40:53.017Z,69.28
2022-10-07T04:43:58.017Z,67.96
2022-10-07T04:47:00.660Z,65.90
2022-10-07T04:50:04.891Z,68.34
2022-10-07T04:53:08.262Z,69.33
2022-10-07T04:56:11.198Z,79.11
2022-10-07T04:59:13.634Z,74.79
2022-10-07T05:02:16.149Z,77.44
2022-10-07T05:05:19.903Z,68.89
2022-10-07T05:08:24.994Z,67.48
2022-10-07T05:11:27.489Z,67.27
2022-10-07T05:14:31.964Z,66.83
2022-10-07T05:17:34.428Z,67.70
2022-10-07T05:20:40.676Z,67.00
2022-10-07T05:23:43.118Z,64.14
2022-10-07T05:26:45.578Z,71.44
2022-10-07T05:29:47.982Z,76.14
2022-10-07T05:32:51.194Z,67.94
2022-10-07T05:35:54.952Z,67.46
2022-10-07T05:38:58.246Z,68.29
2022-10-07T05:42:01.766Z,69.05
2022-10-07T05:45:05.218Z,67.62
2022-10-07T05:48:07.640Z,66.43
2022-10-07T05:51:11.419Z,64.92
2022-10-07T05:54:13.878Z,67.46
2022-10-07T05:57:16.304Z,65.92
2022-10-07T06:00:18.988Z,62.30
2022-10-07T06:03:22.692Z,61.15
2022-10-07T06:06:27.424Z,59.14
2022-10-07T06:09:47.160Z,54.52
2022-10-07T06:13:07.093Z,55.00
2022-10-07T06:16:10.651Z,51.63
2022-10-07T06:19:22.675Z,54.49
2022-10-07T06:22:27.800Z,50.45
2022-10-07T06:25:30.346Z,50.01
2022-10-07T06:28:33.926Z,48.21
2022-10-07T06:31:36.790Z,47.19
2022-10-07T06:34:39.262Z,46.18
2022-10-07T06:37:43.326Z,45.90
2022-10-07T06:40:58.882Z,45.50
2022-10-07T06:44:01.585Z,45.90
2022-10-07T06:47:10.694Z,45.75
2022-10-07T06:50:14.740Z,44.98
2022-10-07T06:53:18.509Z,47.33
2022-10-07T06:56:21.252Z,47.66
2022-10-07T06:59:23.727Z,55.92
2022-10-07T07:02:27.311Z,48.63
2022-10-07T07:05:32.884Z,48.42
2022-10-07T07:08:37.074Z,48.74
2022-10-07T07:11:41.682Z,48.98
2022-10-07T07:14:45.028Z,48.44
2022-10-07T07:17:48.294Z,47.71
2022-10-07T07:20:51.782Z,47.22
2022-10-07T07:23:58.547Z,46.60
2022-10-07T07:27:00.976Z,48.70
2022-10-07T07:30:04.143Z,48.32
2022-10-07T07:33:06.873Z,57.76
2022-10-07T07:36:16.497Z,56.42
2022-10-07T07:39:20.765Z,48.80
2022-10-07T07:42:23.207Z,49.50
2022-10-07T07:45:25.673Z,48.45
2022-10-07T07:48:28.579Z,46.42
2022-10-07T07:51:31.127Z,47.61
2022-10-07T07:54:37.520Z,46.55
2022-10-07T07:57:40.025Z,46.41
2022-10-07T08:00:42.470Z,46.93
2022-10-07T08:03:46.842Z,45.37
2022-10-07T08:06:49.283Z,45.54
2022-10-07T08:09:53.147Z,45.06
2022-10-07T08:12:55.907Z,45.39
2022-10-07T08:15:58.418Z,42.72
2022-10-07T08:19:01.536Z,47.25
2022-10-07T08:22:04.250Z,50.25
2022-10-07T08:25:09.190Z,51.38
2022-10-07T08:28:11.728Z,52.19
2022-10-07T08:31:16.170Z,51.57
2022-10-07T08:34:18.698Z,52.25
2022-10-07T08:37:21.643Z,51.13
2022-10-07T08:40:25.433Z,49.62
2022-10-07T08:43:27.883Z,49.33
2022-10-07T08:46:34.690Z,49.77
2022-10-07T08:49:44.908Z,49.99
2022-10-07T08:52:51.186Z,49.59
2022-10-07T08:56:08.931Z,48.08
2022-10-07T08:59:20.415Z,44.79
2022-10-07T09:02:31.612Z,47.46
2022-10-07T09:05:40.533Z,46.87
2022-10-07T09:08:46.656Z,46.98
2022-10-07T09:11:52.027Z,46.08
2022-10-07T09:14:58.231Z,47.20
2022-10-07T09:18:05.379Z,46.64
2022-10-07T09:21:13.273Z,46.89
2022-10-07T09:24:21.001Z,46.61
2022-10-07T09:27:26.810Z,45.80
2022-10-07T09:30:29.603Z,46.35
2022-10-07T09:33:32.265Z,45.49
2022-10-07T09:36:37.156Z,44.18
2022-10-07T09:39:40.407Z,45.37
2022-10-07T09:42:45.816Z,45.38
2022-10-07T09:45:48.295Z,45.08
2022-10-07T09:48:53.781Z,45.34
2022-10-07T09:52:00.775Z,44.80
2022-10-07T09:55:37.445Z,44.28
2022-10-07T09:58:41.257Z,43.71
2022-10-07T10:01:50.728Z,43.44
2022-10-07T10:04:55.955Z,44.17
2022-10-07T10:08:01.894Z,43.07
2022-10-07T10:11:06.550Z,44.25
2022-10-07T10:14:29.291Z,43.69
2022-10-07T10:17:38.966Z,43.72
2022-10-07T10:20:44.700Z,44.45
2022-10-07T10:23:48.620Z,43.85
2022-10-07T10:27:01.553Z,42.77
2022-10-07T10:30:08.483Z,42.49
2022-10-07T10:33:25.054Z,42.30
2022-10-07T10:36:31.841Z,42.64
2022-10-07T10:39:48.101Z,42.88
2022-10-07T10:42:59.367Z,43.33
2022-10-07T10:46:15.918Z,43.15
2022-10-07T10:49:25.977Z,41.66
2022-10-07T10:52:44.562Z,42.59
2022-10-07T10:56:05.291Z,43.95
2022-10-07T10:59:21.241Z,43.21
2022-10-07T11:02:41.682Z,42.33
2022-10-07T11:05:45.470Z,42.84
2022-10-07T11:08:50.871Z,43.16
2022-10-07T11:11:54.043Z,43.24
2022-10-07T11:15:02.164Z,42.94
2022-10-07T11:18:11.362Z,42.85
2022-10-07T11:21:18.918Z,42.07
2022-10-07T11:24:27.500Z,43.26
2022-10-07T11:27:33.014Z,42.13
2022-10-07T11:30:44.433Z,41.24
2022-10-07T11:33:53.752Z,42.00
2022-10-07T11:37:02.995Z,40.82
2022-10-07T11:40:06.469Z,40.96
2022-10-07T11:43:15.506Z,41.17
2022-10-07T11:46:23.770Z,40.98
2022-10-07T11:49:33.442Z,41.12
2022-10-07T11:52:42.630Z,41.73
2022-10-07T11:55:50.454Z,41.28
2022-10-07T11:59:01.477Z,41.77
2022-10-07T12:02:05.319Z,41.49
2022-10-07T12:05:59.174Z,40.57
2022-10-07T12:09:41.668Z,41.41
2022-10-07T12:12:52.425Z,40.84
2022-10-07T12:15:56.743Z,40.93
2022-10-07T12:19:22.322Z,40.17
2022-10-07T12:22:26.071Z,41.10
2022-10-07T12:25:32.047Z,42.74
2022-10-07T12:28:45.977Z,41.16
2022-10-07T12:31:49.214Z,40.96
2022-10-07T12:34:51.786Z,39.33
2022-10-07T12:38:03.491Z,40.02
2022-10-07T12:41:20.738Z,40.44
2022-10-07T12:44:30.911Z,40.81
2022-10-07T12:47:34.561Z,41.38
2022-10-07T12:50:38.473Z,40.69
2022-10-07T12:53:42.587Z,40.79
2022-10-07T12:56:45.674Z,40.38
2022-10-07T12:59:58.834Z,41.51
2022-10-07T13:03:31.797Z,40.59
2022-10-07T13:07:12.223Z,40.43
2022-10-07T13:10:48.194Z,38.68
2022-10-07T13:13:58.434Z,39.37
2022-10-07T13:17:17.405Z,40.08
2022-10-07T13:20:33.763Z,39.85
2022-10-07T13:23:37.830Z,41.30
2022-10-07T13:26:45.987Z,41.61
2022-10-07T13:29:48.773Z,39.38
2022-10-07T13:32:52.523Z,39.78
2022-10-07T13:36:16.993Z,38.90
2022-10-07T13:39:22.738Z,39.41
2022-10-07T13:42:29.009Z,39.53
2022-10-07T13:45:34.104Z,40.22
2022-10-07T13:48:45.391Z,40.29
2022-10-07T13:51:51.785Z,40.94
2022-10-07T13:54:57.975Z,41.11
2022-10-07T13:58:04.306Z,40.79
2022-10-07T14:01:07.540Z,39.98
2022-10-07T14:04:19.921Z,40.36
2022-10-07T14:07:22.728Z,39.78
2022-10-07T14:10:28.078Z,40.49
2022-10-07T14:13:31.703Z,41.02
2022-10-07T14:16:34.175Z,40.50
2022-10-07T14:19:39.336Z,40.08
2022-10-07T14:22:43.190Z,40.73
2022-10-07T14:25:54.181Z,41.79
2022-10-07T14:28:56.736Z,41.90
2022-10-07T14:32:31.523Z,40.81
2022-10-07T14:35:37.030Z,41.68
2022-10-07T14:38:41.132Z,42.20
2022-10-07T14:41:43.558Z,41.32
2022-10-07T14:44:46.392Z,41.73
2022-10-07T14:47:50.083Z,42.19
2022-10-07T14:50:53.926Z,42.57
2022-10-07T14:54:01.920Z,43.03
2022-10-07T14:57:04.441Z,42.30
2022-10-07T15:00:13.971Z,43.15
2022-10-07T15:03:16.463Z,42.26
2022-10-07T15:06:21.487Z,42.68
2022-10-07T15:09:23.976Z,42.99
2022-10-07T15:12:27.877Z,43.69
2022-10-07T15:15:30.937Z,44.01
2022-10-07T15:18:33.411Z,44.49
2022-10-07T15:21:37.347Z,43.20
2022-10-07T15:24:39.876Z,42.84
2022-10-07T15:27:42.321Z,43.86
2022-10-07T15:30:44.936Z,44.31
2022-10-07T15:33:47.796Z,44.91
2022-10-07T15:36:51.721Z,44.31
2022-10-07T15:39:54.380Z,44.24
2022-10-07T15:42:57.394Z,44.14
2022-10-07T15:46:01.292Z,44.44
2022-10-07T15:49:05.415Z,44.31
2022-10-07T15:52:09.386Z,45.92
2022-10-07T15:55:11.825Z,45.43
2022-10-07T15:58:14.356Z,45.82
2022-10-07T16:01:16.834Z,45.92
2022-10-07T16:04:20.226Z,46.90
2022-10-07T16:07:24.953Z,47.98
2022-10-07T16:10:27.422Z,50.75
2022-10-07T16:13:30.608Z,48.99
2022-10-07T16:16:33.719Z,49.56
2022-10-07T16:19:36.206Z,52.45
2022-10-07T16:22:40.011Z,53.47
2022-10-07T16:25:42.478Z,53.35
2022-10-07T16:29:04.809Z,54.59
2022-10-07T16:32:10.630Z,55.68
2022-10-07T16:35:13.264Z,56.70
2022-10-07T16:38:17.022Z,58.95
2022-10-07T16:41:21.989Z,60.08
2022-10-07T16:44:24.785Z,60.22
2022-10-07T16:47:28.805Z,59.91
2022-10-07T16:50:31.460Z,61.37
2022-10-07T16:53:35.328Z,62.09
2022-10-07T16:56:37.771Z,63.36
2022-10-07T16:59:40.205Z,64.04
2022-10-07T17:02:42.662Z,63.28
2022-10-07T17:05:45.107Z,64.79
2022-10-07T17:08:49.046Z,66.56
2022-10-07T17:11:51.540Z,66.71
2022-10-07T17:14:53.978Z,66.27
2022-10-07T17:17:56.430Z,66.64
2022-10-07T17:21:01.050Z,67.75
2022-10-07T17:24:05.353Z,67.73
2022-10-07T17:27:08.883Z,67.96
2022-10-07T17:30:16.173Z,68.47
2022-10-07T17:33:19.663Z,68.53
2022-10-07T17:36:23.415Z,68.77
2022-10-07T17:39:28.622Z,68.85
2022-10-07T17:42:31.055Z,68.93
2022-10-07T17:45:35.671Z,69.55
2022-10-07T17:48:38.535Z,70.12
2022-10-07T17:51:42.889Z,69.58
2022-10-07T17:54:46.654Z,70.55
2022-10-07T17:57:50.475Z,70.22
2022-10-07T18:00:52.988Z,69.68
2022-10-07T18:03:57.907Z,69.95
2022-10-07T18:07:00.398Z,70.38
2022-10-07T18:10:04.351Z,70.37
2022-10-07T18:13:24.103Z,69.71
2022-10-07T18:16:26.905Z,70.90
2022-10-07T18:19:30.162Z,70.95
2022-10-07T18:22:34.449Z,70.18
2022-10-07T18:25:39.558Z,70.52
2022-10-07T18:28:42.504Z,70.58
2022-10-07T18:31:45.128Z,71.96
2022-10-07T18:34:47.705Z,71.82
2022-10-07T18:37:52.129Z,70.97
2022-10-07T18:41:00.535Z,70.66
2022-10-07T18:44:03.003Z,70.57
2022-10-07T18:47:05.512Z,69.72
2022-10-07T18:50:08.576Z,71.03
2022-10-07T18:53:11.074Z,72.17
2022-10-07T18:56:16.584Z,73.37
2022-10-07T18:59:20.159Z,73.13
2022-10-07T19:02:22.826Z,72.39
2022-10-07T19:05:25.467Z,72.60
2022-10-07T19:08:27.974Z,72.09
2022-10-07T19:11:31.769Z,73.86
2022-10-07T19:14:34.791Z,73.00
2022-10-07T19:17:37.234Z,72.14
2022-10-07T19:20:40.350Z,71.54
2022-10-07T19:23:43.578Z,71.49
2022-10-07T19:26:49.903Z,71.37
2022-10-07T19:29:52.386Z,71.65
2022-10-07T19:32:54.921Z,72.51
2022-10-07T19:35:57.445Z,74.02
2022-10-07T19:39:02.586Z,73.71
2022-10-07T19:42:06.606Z,71.16
2022-10-07T19:45:10.251Z,71.36
2022-10-07T19:48:14.773Z,70.72
2022-10-07T19:51:19.385Z,71.20
2022-10-07T19:54:21.959Z,71.23
2022-10-07T19:57:25.745Z,70.88
2022-10-07T20:00:30.590Z,71.01
2022-10-07T20:03:33.177Z,72.87
2022-10-07T20:06:37.490Z,72.47
2022-10-07T20:09:39.928Z,72.98
2022-10-07T20:12:44.631Z,72.31
2022-10-07T20:15:47.191Z,71.91
2022-10-07T20:18:52.122Z,72.65
2022-10-07T20:21:54.563Z,72.51
2022-10-07T20:24:57.273Z,73.91
2022-10-07T20:28:01.105Z,73.68
2022-10-07T20:31:04.751Z,73.86
2022-10-07T20:34:12.654Z,73.78
2022-10-07T20:37:15.590Z,73.67
2022-10-07T20:40:35.614Z,74.20
2022-10-07T20:43:39.437Z,73.76
2022-10-07T20:46:44.274Z,73.73
2022-10-07T20:49:48.701Z,73.42
2022-10-07T20:52:51.141Z,72.59
2022-10-07T20:55:53.585Z,72.15
2022-10-07T20:58:58.698Z,71.87
2022-10-07T21:02:04.958Z,72.78
2022-10-07T21:05:09.989Z,73.66
2022-10-07T21:08:12.439Z,75.59
2022-10-07T21:11:16.460Z,76.11
2022-10-07T21:14:20.954Z,75.42
2022-10-07T21:17:24.146Z,75.00
2022-10-07T21:20:26.584Z,74.42
2022-10-07T21:23:29.461Z,72.59
2022-10-07T21:26:31.937Z,72.75
2022-10-07T21:29:40.785Z,72.75
2022-10-07T21:32:44.044Z,71.81
2022-10-07T21:35:47.398Z,70.20
2022-10-07T21:38:55.770Z,71.25
2022-10-07T21:41:59.259Z,71.19
2022-10-07T21:45:03.064Z,71.24
2022-10-07T21:48:05.549Z,70.20
2022-10-07T21:51:09.793Z,70.35
2022-10-07T21:54:15.240Z,70.07
2022-10-07T21:57:18.769Z,70.02
2022-10-07T22:00:22.576Z,70.32
2022-10-07T22:03:25.047Z,69.83
2022-10-07T22:06:46.004Z,69.36
2022-10-07T22:09:48.447Z,68.89
2022-10-07T22:12:50.890Z,70.54
2022-10-07T22:15:54.812Z,71.43
2022-10-07T22:18:57.390Z,70.70
2022-10-07T22:21:59.853Z,70.24
2022-10-07T22:25:02.309Z,70.44
2022-10-07T22:28:04.806Z,70.26
2022-10-07T22:31:10.790Z,69.63
2022-10-07T22:34:33.549Z,68.97
2022-10-07T22:37:35.981Z,68.63
2022-10-07T22:40:38.888Z,69.12
2022-10-07T22:43:44.205Z,69.56
2022-10-07T22:46:47.991Z,70.15
2022-10-07T22:49:50.428Z,70.14
2022-10-07T22:52:53.461Z,69.74
2022-10-07T22:55:57.285Z,70.41
2022-10-07T22:59:00.853Z,70.65
2022-10-07T23:02:04.814Z,70.92
2022-10-07T23:05:08.127Z,71.05
2022-10-07T23:08:10.574Z,69.69
2022-10-07T23:11:16.786Z,71.87
2022-10-07T23:14:19.223Z,72.76
2022-10-07T23:17:24.260Z,72.37
2022-10-07T23:20:27.638Z,72.75
2022-10-07T23:23:30.691Z,71.61
2022-10-07T23:26:33.448Z,72.09
2022-10-07T23:29:35.899Z,72.88
2022-10-07T23:32:39.668Z,72.19
2022-10-07T23:35:42.171Z,71.49
2022-10-07T23:38:45.250Z,73.62
2022-10-07T23:41:47.690Z,74.18
2022-10-07T23:44:50.128Z,72.53
2022-10-07T23:47:54.101Z,71.32
2022-10-07T23:50:56.555Z,72.16
2022-10-07T23:54:00.255Z,73.61
2022-10-07T23:57:02.713Z,73.50
